sensor_id;sensor_type;location;lat;lon;timestamp;temperature;humidity
12225;DHT22;6175;50.956;11.064;2023-02-13T00:05:43;5.50;99.90
12225;DHT22;6175;50.956;11.064;2023-02-13T00:10:37;5.50;99.90
12225;DHT22;6175;50.956;11.064;2023-02-13T00:18:00;5.40;99.90
12225;DHT22;6175;50.956;11.064;2023-02-13T00:27:50;5.40;99.90
12225;DHT22;6175;50.956;11.064;2023-02-13T00:32:45;5.40;99.90
12225;DHT22;6175;50.956;11.064;2023-02-13T00:35:14;5.40;99.90
12225;DHT22;6175;50.956;11.064;2023-02-13T00:40:08;5.30;99.90
12225;DHT22;6175;50.956;11.064;2023-02-13T00:45:02;5.30;99.90
12225;DHT22;6175;50.956;11.064;2023-02-13T00:54:52;5.30;99.90
12225;DHT22;6175;50.956;11.064;2023-02-13T01:07:07;5.20;99.90
12225;DHT22;6175;50.956;11.064;2023-02-13T01:09:35;5.20;99.90
12225;DHT22;6175;50.956;11.064;2023-02-13T01:19:23;5.20;99.90
12225;DHT22;6175;50.956;11.064;2023-02-13T01:26:46;5.10;99.90
12225;DHT22;6175;50.956;11.064;2023-02-13T01:29:13;5.10;99.90
12225;DHT22;6175;50.956;11.064;2023-02-13T01:31:40;5.10;99.90
12225;DHT22;6175;50.956;11.064;2023-02-13T01:43:59;5.10;99.90
12225;DHT22;6175;50.956;11.064;2023-02-13T01:46:28;4.90;99.90
12225;DHT22;6175;50.956;11.064;2023-02-13T01:49:03;5.00;99.90
12225;DHT22;6175;50.956;11.064;2023-02-13T01:51:32;5.00;99.90
12225;DHT22;6175;50.956;11.064;2023-02-13T01:54:03;5.00;99.90
12225;DHT22;6175;50.956;11.064;2023-02-13T01:56:33;4.90;99.90
12225;DHT22;6175;50.956;11.064;2023-02-13T01:59:05;4.90;99.90
12225;DHT22;6175;50.956;11.064;2023-02-13T02:01:33;4.90;99.90
12225;DHT22;6175;50.956;11.064;2023-02-13T02:04:06;4.90;99.90
12225;DHT22;6175;50.956;11.064;2023-02-13T02:06:38;4.80;99.90
12225;DHT22;6175;50.956;11.064;2023-02-13T02:11:44;4.80;99.90
12225;DHT22;6175;50.956;11.064;2023-02-13T02:14:13;4.80;99.90
12225;DHT22;6175;50.956;11.064;2023-02-13T02:16:40;4.70;99.90
12225;DHT22;6175;50.956;11.064;2023-02-13T02:19:14;4.60;99.90
12225;DHT22;6175;50.956;11.064;2023-02-13T02:22:15;4.70;99.90
12225;DHT22;6175;50.956;11.064;2023-02-13T02:28:27;4.70;99.90
12225;DHT22;6175;50.956;11.064;2023-02-13T02:31:22;4.70;99.90
12225;DHT22;6175;50.956;11.064;2023-02-13T02:34:07;4.70;99.90
12225;DHT22;6175;50.956;11.064;2023-02-13T02:36:45;4.70;99.90
12225;DHT22;6175;50.956;11.064;2023-02-13T02:39:24;4.60;99.90
12225;DHT22;6175;50.956;11.064;2023-02-13T02:42:04;4.60;99.90
12225;DHT22;6175;50.956;11.064;2023-02-13T02:44:40;4.60;99.90
12225;DHT22;6175;50.956;11.064;2023-02-13T02:47:20;4.60;99.90
12225;DHT22;6175;50.956;11.064;2023-02-13T02:50:24;4.60;99.90
12225;DHT22;6175;50.956;11.064;2023-02-13T02:52:58;4.60;99.90
12225;DHT22;6175;50.956;11.064;2023-02-13T02:55:34;4.60;99.90
12225;DHT22;6175;50.956;11.064;2023-02-13T02:58:10;4.50;99.90
12225;DHT22;6175;50.956;11.064;2023-02-13T03:00:56;4.40;99.90
12225;DHT22;6175;50.956;11.064;2023-02-13T03:03:51;4.30;99.90
12225;DHT22;6175;50.956;11.064;2023-02-13T03:06:49;4.50;99.90
12225;DHT22;6175;50.956;11.064;2023-02-13T03:09:21;2.00;99.90
12225;DHT22;6175;50.956;11.064;2023-02-13T03:12:07;4.30;99.90
12225;DHT22;6175;50.956;11.064;2023-02-13T03:20:14;4.30;99.90
12225;DHT22;6175;50.956;11.064;2023-02-13T03:23:12;4.20;99.90
12225;DHT22;6175;50.956;11.064;2023-02-13T03:25:56;4.20;99.90
12225;DHT22;6175;50.956;11.064;2023-02-13T03:28:33;4.20;99.90
12225;DHT22;6175;50.956;11.064;2023-02-13T03:31:28;4.20;99.90
12225;DHT22;6175;50.956;11.064;2023-02-13T03:34:00;4.20;99.90
12225;DHT22;6175;50.956;11.064;2023-02-13T03:36:45;4.10;99.90
12225;DHT22;6175;50.956;11.064;2023-02-13T03:39:43;4.10;99.90
12225;DHT22;6175;50.956;11.064;2023-02-13T03:42:19;4.10;99.90
12225;DHT22;6175;50.956;11.064;2023-02-13T03:44:51;4.00;99.90
12225;DHT22;6175;50.956;11.064;2023-02-13T03:47:40;4.00;99.90
12225;DHT22;6175;50.956;11.064;2023-02-13T03:50:10;6.80;99.90
12225;DHT22;6175;50.956;11.064;2023-02-13T03:52:42;4.00;99.90
12225;DHT22;6175;50.956;11.064;2023-02-13T03:55:14;4.00;99.90
12225;DHT22;6175;50.956;11.064;2023-02-13T03:58:02;4.00;99.90
12225;DHT22;6175;50.956;11.064;2023-02-13T04:00:50;4.00;99.90
12225;DHT22;6175;50.956;11.064;2023-02-13T04:03:23;4.00;99.90
12225;DHT22;6175;50.956;11.064;2023-02-13T04:05:55;3.90;99.90
12225;DHT22;6175;50.956;11.064;2023-02-13T04:08:23;4.00;99.90
12225;DHT22;6175;50.956;11.064;2023-02-13T04:10:56;4.00;99.90
12225;DHT22;6175;50.956;11.064;2023-02-13T04:13:28;4.00;99.90
12225;DHT22;6175;50.956;11.064;2023-02-13T04:16:02;3.90;99.90
12225;DHT22;6175;50.956;11.064;2023-02-13T04:18:31;3.90;99.90
12225;DHT22;6175;50.956;11.064;2023-02-13T04:21:01;3.90;99.90
12225;DHT22;6175;50.956;11.064;2023-02-13T04:25:57;3.80;99.90
12225;DHT22;6175;50.956;11.064;2023-02-13T04:43:10;3.90;99.90
12225;DHT22;6175;50.956;11.064;2023-02-13T04:55:27;3.80;99.90
12225;DHT22;6175;50.956;11.064;2023-02-13T04:57:54;3.70;99.90
12225;DHT22;6175;50.956;11.064;2023-02-13T05:00:25;3.70;99.90
12225;DHT22;6175;50.956;11.064;2023-02-13T05:02:52;3.80;99.90
12225;DHT22;6175;50.956;11.064;2023-02-13T05:05:19;3.80;99.90
12225;DHT22;6175;50.956;11.064;2023-02-13T05:17:36;3.80;99.90
12225;DHT22;6175;50.956;11.064;2023-02-13T05:20:04;3.80;99.90
12225;DHT22;6175;50.956;11.064;2023-02-13T05:25:16;3.90;99.90
12225;DHT22;6175;50.956;11.064;2023-02-13T05:27:43;3.90;99.90
12225;DHT22;6175;50.956;11.064;2023-02-13T05:30:11;3.90;99.90
12225;DHT22;6175;50.956;11.064;2023-02-13T05:32:39;4.00;99.90
12225;DHT22;6175;50.956;11.064;2023-02-13T05:35:07;4.00;99.90
12225;DHT22;6175;50.956;11.064;2023-02-13T05:40:01;4.00;99.90
12225;DHT22;6175;50.956;11.064;2023-02-13T05:49:51;4.10;99.90
12225;DHT22;6175;50.956;11.064;2023-02-13T06:02:06;4.10;99.90
12225;DHT22;6175;50.956;11.064;2023-02-13T06:11:57;4.00;99.90
12225;DHT22;6175;50.956;11.064;2023-02-13T06:26:41;4.00;99.90
12225;DHT22;6175;50.956;11.064;2023-02-13T06:46:20;4.00;99.90
12225;DHT22;6175;50.956;11.064;2023-02-13T06:56:09;4.10;99.90
12225;DHT22;6175;50.956;11.064;2023-02-13T07:15:50;4.20;99.90
12225;DHT22;6175;50.956;11.064;2023-02-13T07:23:11;4.30;99.90
12225;DHT22;6175;50.956;11.064;2023-02-13T07:33:02;4.40;99.90
12225;DHT22;6175;50.956;11.064;2023-02-13T07:40:24;4.50;99.90
12225;DHT22;6175;50.956;11.064;2023-02-13T07:50:14;4.60;99.90
12225;DHT22;6175;50.956;11.064;2023-02-13T08:00:04;4.70;99.90
12225;DHT22;6175;50.956;11.064;2023-02-13T08:04:58;4.60;99.90
12225;DHT22;6175;50.956;11.064;2023-02-13T08:19:59;4.70;99.90
12225;DHT22;6175;50.956;11.064;2023-02-13T08:22:27;4.80;99.90
12225;DHT22;6175;50.956;11.064;2023-02-13T09:04:13;5.10;99.90
12225;DHT22;6175;50.956;11.064;2023-02-13T09:09:09;5.10;99.90
12225;DHT22;6175;50.956;11.064;2023-02-13T09:14:05;5.20;99.90
12225;DHT22;6175;50.956;11.064;2023-02-13T09:26:34;5.60;99.90
12225;DHT22;6175;50.956;11.064;2023-02-13T09:29:01;5.70;99.90
12225;DHT22;6175;50.956;11.064;2023-02-13T09:36:23;6.10;99.90
12225;DHT22;6175;50.956;11.064;2023-02-13T09:38:52;6.10;99.90
12225;DHT22;6175;50.956;11.064;2023-02-13T09:43:51;6.20;99.90
12225;DHT22;6175;50.956;11.064;2023-02-13T09:46:21;6.20;99.90
12225;DHT22;6175;50.956;11.064;2023-02-13T09:48:53;6.20;99.90
12225;DHT22;6175;50.956;11.064;2023-02-13T09:51:21;6.20;99.90
12225;DHT22;6175;50.956;11.064;2023-02-13T09:53:53;6.20;99.90
12225;DHT22;6175;50.956;11.064;2023-02-13T09:56:26;6.30;99.90
12225;DHT22;6175;50.956;11.064;2023-02-13T09:59:05;6.40;99.90
12225;DHT22;6175;50.956;11.064;2023-02-13T10:01:39;6.50;99.90
12225;DHT22;6175;50.956;11.064;2023-02-13T10:04:24;6.50;99.90
12225;DHT22;6175;50.956;11.064;2023-02-13T10:07:01;6.60;99.90
12225;DHT22;6175;50.956;11.064;2023-02-13T10:09:34;6.70;99.90
12225;DHT22;6175;50.956;11.064;2023-02-13T10:12:18;6.80;99.90
12225;DHT22;6175;50.956;11.064;2023-02-13T10:14:57;8.40;99.90
12225;DHT22;6175;50.956;11.064;2023-02-13T10:17:31;6.90;99.90
12225;DHT22;6175;50.956;11.064;2023-02-13T10:20:00;6.80;99.90
12225;DHT22;6175;50.956;11.064;2023-02-13T10:22:31;6.80;99.90
12225;DHT22;6175;50.956;11.064;2023-02-13T10:25:02;6.90;99.90
12225;DHT22;6175;50.956;11.064;2023-02-13T10:27:33;6.80;99.90
12225;DHT22;6175;50.956;11.064;2023-02-13T10:30:04;6.70;99.90
12225;DHT22;6175;50.956;11.064;2023-02-13T10:32:53;6.80;99.90
12225;DHT22;6175;50.956;11.064;2023-02-13T10:35:36;6.80;99.90
12225;DHT22;6175;50.956;11.064;2023-02-13T10:38:11;6.90;99.90
12225;DHT22;6175;50.956;11.064;2023-02-13T10:40:46;6.90;99.90
12225;DHT22;6175;50.956;11.064;2023-02-13T10:45:55;7.00;99.90
12225;DHT22;6175;50.956;11.064;2023-02-13T10:48:35;7.10;99.90
12225;DHT22;6175;50.956;11.064;2023-02-13T10:51:08;7.10;99.90
12225;DHT22;6175;50.956;11.064;2023-02-13T10:53:49;7.10;99.90
12225;DHT22;6175;50.956;11.064;2023-02-13T10:56:29;7.30;99.90
12225;DHT22;6175;50.956;11.064;2023-02-13T10:59:18;7.40;99.90
12225;DHT22;6175;50.956;11.064;2023-02-13T11:01:55;7.30;99.90
12225;DHT22;6175;50.956;11.064;2023-02-13T11:06:54;8.30;99.90
12225;DHT22;6175;50.956;11.064;2023-02-13T11:14:17;7.40;99.90
12225;DHT22;6175;50.956;11.064;2023-02-13T11:16:52;7.40;99.90
12225;DHT22;6175;50.956;11.064;2023-02-13T11:19:23;7.40;99.90
12225;DHT22;6175;50.956;11.064;2023-02-13T11:21:58;7.40;99.90
12225;DHT22;6175;50.956;11.064;2023-02-13T11:24:26;7.50;99.90
12225;DHT22;6175;50.956;11.064;2023-02-13T11:26:58;7.60;99.90
12225;DHT22;6175;50.956;11.064;2023-02-13T11:29:28;7.70;99.90
12225;DHT22;6175;50.956;11.064;2023-02-13T11:32:18;7.70;99.90
12225;DHT22;6175;50.956;11.064;2023-02-13T11:37:19;7.60;99.90
12225;DHT22;6175;50.956;11.064;2023-02-13T11:39:47;7.50;99.90
12225;DHT22;6175;50.956;11.064;2023-02-13T11:42:18;7.50;99.90
12225;DHT22;6175;50.956;11.064;2023-02-13T11:47:29;7.50;99.90
12225;DHT22;6175;50.956;11.064;2023-02-13T11:52:26;7.30;99.90
12225;DHT22;6175;50.956;11.064;2023-02-13T11:54:58;7.40;99.90
12225;DHT22;6175;50.956;11.064;2023-02-13T11:57:29;7.40;99.90
12225;DHT22;6175;50.956;11.064;2023-02-13T11:59:57;7.50;99.90
12225;DHT22;6175;50.956;11.064;2023-02-13T12:02:27;7.60;99.90
12225;DHT22;6175;50.956;11.064;2023-02-13T12:05:14;7.60;99.90
12225;DHT22;6175;50.956;11.064;2023-02-13T12:07:42;7.70;99.90
12225;DHT22;6175;50.956;11.064;2023-02-13T12:10:19;7.70;99.90
12225;DHT22;6175;50.956;11.064;2023-02-13T12:12:53;7.70;99.90
12225;DHT22;6175;50.956;11.064;2023-02-13T12:15:23;7.70;99.90
12225;DHT22;6175;50.956;11.064;2023-02-13T12:18:03;7.80;99.90
12225;DHT22;6175;50.956;11.064;2023-02-13T12:20:39;7.90;99.90
12225;DHT22;6175;50.956;11.064;2023-02-13T12:23:19;7.80;99.90
12225;DHT22;6175;50.956;11.064;2023-02-13T12:26:25;7.60;99.90
12225;DHT22;6175;50.956;11.064;2023-02-13T12:29:07;7.70;99.90
12225;DHT22;6175;50.956;11.064;2023-02-13T12:31:52;7.60;99.90
12225;DHT22;6175;50.956;11.064;2023-02-13T12:37:44;7.50;99.90
12225;DHT22;6175;50.956;11.064;2023-02-13T12:40:27;7.50;99.90
12225;DHT22;6175;50.956;11.064;2023-02-13T12:43:06;9.50;99.90
12225;DHT22;6175;50.956;11.064;2023-02-13T12:48:20;7.50;99.90
12225;DHT22;6175;50.956;11.064;2023-02-13T12:51:04;7.50;99.90
12225;DHT22;6175;50.956;11.064;2023-02-13T12:53:59;7.50;99.90
12225;DHT22;6175;50.956;11.064;2023-02-13T12:56:40;7.50;99.90
12225;DHT22;6175;50.956;11.064;2023-02-13T12:59:30;7.50;99.90
12225;DHT22;6175;50.956;11.064;2023-02-13T13:05:08;7.30;99.90
12225;DHT22;6175;50.956;11.064;2023-02-13T13:07:55;7.50;99.90
12225;DHT22;6175;50.956;11.064;2023-02-13T13:10:34;7.50;99.90
12225;DHT22;6175;50.956;11.064;2023-02-13T13:13:13;5.40;99.90
12225;DHT22;6175;50.956;11.064;2023-02-13T13:15:50;7.50;99.90
12225;DHT22;6175;50.956;11.064;2023-02-13T13:18:29;7.60;99.90
12225;DHT22;6175;50.956;11.064;2023-02-13T13:21:08;7.60;99.90
12225;DHT22;6175;50.956;11.064;2023-02-13T13:23:45;7.70;99.90
12225;DHT22;6175;50.956;11.064;2023-02-13T13:26:20;7.70;99.90
12225;DHT22;6175;50.956;11.064;2023-02-13T13:28:52;7.70;99.90
12225;DHT22;6175;50.956;11.064;2023-02-13T13:31:21;7.90;99.90
12225;DHT22;6175;50.956;11.064;2023-02-13T13:33:59;7.90;99.90
12225;DHT22;6175;50.956;11.064;2023-02-13T13:36:34;7.90;99.90
12225;DHT22;6175;50.956;11.064;2023-02-13T13:39:08;8.00;99.90
12225;DHT22;6175;50.956;11.064;2023-02-13T13:41:45;8.00;99.90
12225;DHT22;6175;50.956;11.064;2023-02-13T13:44:22;8.00;99.90
12225;DHT22;6175;50.956;11.064;2023-02-13T13:46:56;8.00;99.90
12225;DHT22;6175;50.956;11.064;2023-02-13T13:49:39;8.00;99.90
12225;DHT22;6175;50.956;11.064;2023-02-13T13:52:10;8.90;99.90
12225;DHT22;6175;50.956;11.064;2023-02-13T13:57:11;8.10;99.90
12225;DHT22;6175;50.956;11.064;2023-02-13T13:59:58;8.10;99.90
12225;DHT22;6175;50.956;11.064;2023-02-13T14:02:37;8.10;99.90
12225;DHT22;6175;50.956;11.064;2023-02-13T14:08:02;8.20;99.90
12225;DHT22;6175;50.956;11.064;2023-02-13T14:11:00;8.20;99.90
12225;DHT22;6175;50.956;11.064;2023-02-13T14:13:33;8.20;99.90
12225;DHT22;6175;50.956;11.064;2023-02-13T14:16:00;8.20;99.90
12225;DHT22;6175;50.956;11.064;2023-02-13T14:18:28;8.20;99.90
12225;DHT22;6175;50.956;11.064;2023-02-13T14:20:58;8.10;99.90
12225;DHT22;6175;50.956;11.064;2023-02-13T14:23:44;8.20;99.90
12225;DHT22;6175;50.956;11.064;2023-02-13T14:26:34;8.20;99.90
12225;DHT22;6175;50.956;11.064;2023-02-13T14:29:27;8.20;99.90
12225;DHT22;6175;50.956;11.064;2023-02-13T14:32:01;8.20;99.90
12225;DHT22;6175;50.956;11.064;2023-02-13T14:34:32;8.20;99.90
12225;DHT22;6175;50.956;11.064;2023-02-13T14:37:16;8.20;99.90
12225;DHT22;6175;50.956;11.064;2023-02-13T14:40:12;8.20;99.90
12225;DHT22;6175;50.956;11.064;2023-02-13T14:42:42;8.20;99.90
12225;DHT22;6175;50.956;11.064;2023-02-13T14:45:13;8.20;99.90
12225;DHT22;6175;50.956;11.064;2023-02-13T14:47:43;8.30;99.90
12225;DHT22;6175;50.956;11.064;2023-02-13T14:50:17;8.20;99.90
12225;DHT22;6175;50.956;11.064;2023-02-13T14:52:46;8.20;99.90
12225;DHT22;6175;50.956;11.064;2023-02-13T14:55:16;12.80;99.90
12225;DHT22;6175;50.956;11.064;2023-02-13T14:57:50;8.10;99.90
12225;DHT22;6175;50.956;11.064;2023-02-13T15:00:24;8.20;99.90
12225;DHT22;6175;50.956;11.064;2023-02-13T15:02:54;8.20;99.90
12225;DHT22;6175;50.956;11.064;2023-02-13T15:05:23;8.20;99.90
12225;DHT22;6175;50.956;11.064;2023-02-13T15:08:01;8.20;99.90
12225;DHT22;6175;50.956;11.064;2023-02-13T15:10:35;8.20;99.90
12225;DHT22;6175;50.956;11.064;2023-02-13T15:13:14;8.20;99.90
12225;DHT22;6175;50.956;11.064;2023-02-13T15:15:44;8.20;99.90
12225;DHT22;6175;50.956;11.064;2023-02-13T15:18:18;8.20;99.90
12225;DHT22;6175;50.956;11.064;2023-02-13T15:23:20;8.10;99.90
12225;DHT22;6175;50.956;11.064;2023-02-13T15:28:18;8.10;99.90
12225;DHT22;6175;50.956;11.064;2023-02-13T15:30:52;8.00;99.90
12225;DHT22;6175;50.956;11.064;2023-02-13T15:33:22;8.00;99.90
12225;DHT22;6175;50.956;11.064;2023-02-13T15:35:54;8.00;99.90
12225;DHT22;6175;50.956;11.064;2023-02-13T15:38:24;7.90;99.90
12225;DHT22;6175;50.956;11.064;2023-02-13T15:40:54;7.90;99.90
12225;DHT22;6175;50.956;11.064;2023-02-13T15:43:30;7.90;99.90
12225;DHT22;6175;50.956;11.064;2023-02-13T15:46:00;7.80;99.90
12225;DHT22;6175;50.956;11.064;2023-02-13T15:48:29;7.70;99.90
12225;DHT22;6175;50.956;11.064;2023-02-13T15:50:57;7.70;99.90
12225;DHT22;6175;50.956;11.064;2023-02-13T15:55:55;7.50;99.90
12225;DHT22;6175;50.956;11.064;2023-02-13T15:58:27;7.40;99.90
12225;DHT22;6175;50.956;11.064;2023-02-13T16:00:56;7.30;99.90
12225;DHT22;6175;50.956;11.064;2023-02-13T16:03:24;7.20;99.90
12225;DHT22;6175;50.956;11.064;2023-02-13T16:05:52;7.20;99.90
12225;DHT22;6175;50.956;11.064;2023-02-13T16:08:30;7.10;99.90
12225;DHT22;6175;50.956;11.064;2023-02-13T16:11:27;7.00;99.90
12225;DHT22;6175;50.956;11.064;2023-02-13T16:16:32;6.90;99.90
12225;DHT22;6175;50.956;11.064;2023-02-13T16:19:00;8.50;99.90
12225;DHT22;6175;50.956;11.064;2023-02-13T16:21:28;6.80;99.90
12225;DHT22;6175;50.956;11.064;2023-02-13T16:24:01;6.80;99.90
12225;DHT22;6175;50.956;11.064;2023-02-13T16:26:29;6.70;99.90
12225;DHT22;6175;50.956;11.064;2023-02-13T16:31:25;6.60;99.90
12225;DHT22;6175;50.956;11.064;2023-02-13T16:36:27;6.40;99.90
12225;DHT22;6175;50.956;11.064;2023-02-13T16:38:54;6.30;99.90
12225;DHT22;6175;50.956;11.064;2023-02-13T16:41:29;8.00;99.90
12225;DHT22;6175;50.956;11.064;2023-02-13T16:43:56;6.10;99.90
12225;DHT22;6175;50.956;11.064;2023-02-13T16:46:27;6.10;99.90
12225;DHT22;6175;50.956;11.064;2023-02-13T16:49:13;6.00;99.90
12225;DHT22;6175;50.956;11.064;2023-02-13T16:51:43;5.80;99.90
12225;DHT22;6175;50.956;11.064;2023-02-13T16:54:23;5.70;99.90
12225;DHT22;6175;50.956;11.064;2023-02-13T16:56:53;5.60;99.90
12225;DHT22;6175;50.956;11.064;2023-02-13T16:59:25;5.50;99.90
12225;DHT22;6175;50.956;11.064;2023-02-13T17:02:14;5.50;99.90
12225;DHT22;6175;50.956;11.064;2023-02-13T17:04:42;5.30;99.90
12225;DHT22;6175;50.956;11.064;2023-02-13T17:07:17;5.30;99.90
12225;DHT22;6175;50.956;11.064;2023-02-13T17:12:15;5.00;99.90
12225;DHT22;6175;50.956;11.064;2023-02-13T17:17:14;4.80;99.90
12225;DHT22;6175;50.956;11.064;2023-02-13T17:22:18;4.60;99.90
12225;DHT22;6175;50.956;11.064;2023-02-13T18:16:20;3.50;99.90
12225;DHT22;6175;50.956;11.064;2023-02-13T18:18:49;3.40;99.90
12225;DHT22;6175;50.956;11.064;2023-02-13T18:26:12;3.30;99.90
12225;DHT22;6175;50.956;11.064;2023-02-13T18:40:57;3.10;99.90
12225;DHT22;6175;50.956;11.064;2023-02-13T18:43:25;3.00;99.90
12225;DHT22;6175;50.956;11.064;2023-02-13T18:53:15;2.90;99.90
12225;DHT22;6175;50.956;11.064;2023-02-13T18:55:42;2.80;99.90
12225;DHT22;6175;50.956;11.064;2023-02-13T19:12:53;2.40;99.90
12225;DHT22;6175;50.956;11.064;2023-02-13T19:17:48;2.40;99.90
12225;DHT22;6175;50.956;11.064;2023-02-13T19:35:03;2.40;99.90
12225;DHT22;6175;50.956;11.064;2023-02-13T19:44:53;2.10;99.90
12225;DHT22;6175;50.956;11.064;2023-02-13T20:29:13;1.50;99.90
12225;DHT22;6175;50.956;11.064;2023-02-13T20:39:03;1.30;99.90
12225;DHT22;6175;50.956;11.064;2023-02-13T20:41:32;1.40;99.90
12225;DHT22;6175;50.956;11.064;2023-02-13T20:44:03;1.40;99.90
12225;DHT22;6175;50.956;11.064;2023-02-13T20:48:59;1.30;99.90
12225;DHT22;6175;50.956;11.064;2023-02-13T20:53:54;1.20;99.90
12225;DHT22;6175;50.956;11.064;2023-02-13T20:56:24;1.20;99.90
12225;DHT22;6175;50.956;11.064;2023-02-13T20:58:53;1.10;99.90
12225;DHT22;6175;50.956;11.064;2023-02-13T21:01:24;1.10;99.90
12225;DHT22;6175;50.956;11.064;2023-02-13T21:03:52;1.10;99.90
12225;DHT22;6175;50.956;11.064;2023-02-13T21:06:21;1.10;99.90
12225;DHT22;6175;50.956;11.064;2023-02-13T21:11:15;1.10;99.90
12225;DHT22;6175;50.956;11.064;2023-02-13T21:16:12;1.10;99.90
12225;DHT22;6175;50.956;11.064;2023-02-13T21:18:41;3.00;99.90
12225;DHT22;6175;50.956;11.064;2023-02-13T21:21:09;1.30;99.90
12225;DHT22;6175;50.956;11.064;2023-02-13T21:23:37;1.40;99.90
12225;DHT22;6175;50.956;11.064;2023-02-13T21:26:06;1.40;99.90
12225;DHT22;6175;50.956;11.064;2023-02-13T21:36:00;1.70;99.90
12225;DHT22;6175;50.956;11.064;2023-02-13T22:10:38;1.70;99.90
12225;DHT22;6175;50.956;11.064;2023-02-13T22:22:55;1.40;99.90
12225;DHT22;6175;50.956;11.064;2023-02-13T22:27:50;1.30;99.90
12225;DHT22;6175;50.956;11.064;2023-02-13T22:45:02;1.10;99.90
12225;DHT22;6175;50.956;11.064;2023-02-13T23:19:59;0.50;99.90
12225;DHT22;6175;50.956;11.064;2023-02-13T23:54:22;-0.20;99.90
12225;DHT22;6175;50.956;11.064;2023-02-13T23:56:50;-0.20;99.90
